createdAt,value
2022-10-30T00:00:42.199Z,10.15
2022-10-30T00:03:13.125Z,9.63
2022-10-30T00:05:49.061Z,10.23
2022-10-30T00:08:19.817Z,9.68
2022-10-30T00:10:50.160Z,10.00
2022-10-30T00:13:19.522Z,9.73
2022-10-30T00:15:52.927Z,9.48
2022-10-30T00:18:21.857Z,9.68
2022-10-30T00:20:51.199Z,9.10
2022-10-30T00:23:20.306Z,8.88
2022-10-30T00:25:48.577Z,9.05
2022-10-30T00:28:16.537Z,9.73
2022-10-30T00:30:44.943Z,7.50
2022-10-30T00:33:12.868Z,8.85
2022-10-30T00:35:49.251Z,7.80
2022-10-30T00:38:18.673Z,8.10
2022-10-30T00:40:47.728Z,9.00
2022-10-30T00:43:33.606Z,9.63
2022-10-30T00:46:06.572Z,9.80
2022-10-30T00:48:35.740Z,8.52
2022-10-30T00:51:06.308Z,10.48
2022-10-30T00:53:36.103Z,10.43
2022-10-30T00:56:08.047Z,10.20
2022-10-30T00:58:40.789Z,10.18
2022-10-30T01:01:13.928Z,9.88
2022-10-30T01:03:42.838Z,10.05
2022-10-30T01:06:15.818Z,13.38
2022-10-30T01:08:46.428Z,9.77
2022-10-30T01:11:14.466Z,10.07
2022-10-30T01:13:46.767Z,11.48
2022-10-30T01:16:47.221Z,13.05
2022-10-30T01:19:26.951Z,10.50
2022-10-30T01:22:13.880Z,10.25
2022-10-30T01:24:53.792Z,10.40
2022-10-30T01:27:40.210Z,10.13
2022-10-30T01:30:19.267Z,9.85
2022-10-30T01:33:02.216Z,10.15
2022-10-30T01:35:38.359Z,9.02
2022-10-30T01:38:13.283Z,7.82
2022-10-30T01:40:44.554Z,9.07
2022-10-30T01:43:12.519Z,8.70
2022-10-30T01:45:54.551Z,9.50
2022-10-30T01:48:44.930Z,8.40
2022-10-30T01:51:21.907Z,8.32
2022-10-30T01:53:58.919Z,8.35
2022-10-30T01:56:38.608Z,8.40
2022-10-30T01:59:12.406Z,7.75
2022-10-30T02:01:41.042Z,9.18
2022-10-30T02:04:11.268Z,9.75
2022-10-30T02:06:40.957Z,8.35
2022-10-30T02:09:10.008Z,11.60
2022-10-30T02:11:47.960Z,8.77
2022-10-30T02:14:22.556Z,8.00
2022-10-30T02:16:52.768Z,7.22
2022-10-30T02:19:21.729Z,6.82
2022-10-30T02:21:51.809Z,7.70
2022-10-30T02:24:19.865Z,8.35
2022-10-30T02:26:47.879Z,7.82
2022-10-30T02:29:15.849Z,8.82
2022-10-30T02:31:43.825Z,9.43
2022-10-30T02:34:12.235Z,9.20
2022-10-30T02:36:40.257Z,9.38
2022-10-30T02:39:09.598Z,9.60
2022-10-30T02:41:37.843Z,8.60
2022-10-30T02:44:06.574Z,8.60
2022-10-30T02:46:36.347Z,9.90
2022-10-30T02:49:04.727Z,7.72
2022-10-30T02:51:33.506Z,7.32
2022-10-30T02:54:02.252Z,7.40
2022-10-30T02:56:32.692Z,7.57
2022-10-30T02:59:01.473Z,6.93
2022-10-30T03:01:29.732Z,6.63
2022-10-30T03:03:59.896Z,7.60
2022-10-30T03:06:28.223Z,7.88
2022-10-30T03:08:59.208Z,6.88
2022-10-30T03:11:27.209Z,7.38
2022-10-30T03:13:57.592Z,7.20
2022-10-30T03:16:29.285Z,6.53
2022-10-30T03:18:58.271Z,7.25
2022-10-30T03:21:28.445Z,6.82
2022-10-30T03:23:57.196Z,6.68
2022-10-30T03:26:25.123Z,6.25
2022-10-30T03:28:59.005Z,5.35
2022-10-30T03:31:27.018Z,7.68
2022-10-30T03:34:10.072Z,6.95
2022-10-30T03:36:38.043Z,8.05
2022-10-30T03:39:06.545Z,7.18
2022-10-30T03:41:35.261Z,7.18
2022-10-30T03:44:05.021Z,8.10
2022-10-30T03:46:32.992Z,7.13
2022-10-30T03:49:15.333Z,6.55
2022-10-30T03:51:43.761Z,6.88
2022-10-30T03:54:11.816Z,7.57
2022-10-30T03:56:40.156Z,9.45
2022-10-30T03:59:12.109Z,8.50
2022-10-30T04:01:45.042Z,8.07
2022-10-30T04:04:13.079Z,8.15
2022-10-30T04:06:41.650Z,8.15
2022-10-30T04:09:09.924Z,7.55
2022-10-30T04:11:42.485Z,7.65
2022-10-30T04:14:11.896Z,8.10
2022-10-30T04:16:39.857Z,7.68
2022-10-30T04:19:09.686Z,7.88
2022-10-30T04:21:38.253Z,7.03
2022-10-30T04:24:06.698Z,7.50
2022-10-30T04:26:36.337Z,6.65
2022-10-30T04:29:04.439Z,7.28
2022-10-30T04:31:33.943Z,8.10
2022-10-30T04:34:03.007Z,7.32
2022-10-30T04:36:33.869Z,8.32
2022-10-30T04:39:03.060Z,7.90
2022-10-30T04:41:31.855Z,7.43
2022-10-30T04:44:05.316Z,6.82
2022-10-30T04:46:35.270Z,7.78
2022-10-30T04:49:10.178Z,7.15
2022-10-30T04:51:38.175Z,7.50
2022-10-30T04:54:08.029Z,7.25
2022-10-30T04:56:38.135Z,7.68
2022-10-30T04:59:07.098Z,7.85
2022-10-30T05:01:36.473Z,6.70
2022-10-30T05:04:05.777Z,6.55
2022-10-30T05:06:34.721Z,7.78
2022-10-30T05:09:03.237Z,6.43
2022-10-30T05:11:41.426Z,8.38
2022-10-30T05:14:09.621Z,7.53
2022-10-30T05:16:40.338Z,8.27
2022-10-30T05:19:08.983Z,8.50
2022-10-30T05:21:37.068Z,7.95
2022-10-30T05:24:06.365Z,7.97
2022-10-30T05:26:42.192Z,8.35
2022-10-30T05:29:10.376Z,9.00
2022-10-30T05:31:40.802Z,8.30
2022-10-30T05:34:17.751Z,8.38
2022-10-30T05:36:48.623Z,9.57
2022-10-30T05:39:17.158Z,9.38
2022-10-30T05:41:48.730Z,9.52
2022-10-30T05:44:29.205Z,9.55
2022-10-30T05:47:05.250Z,10.05
2022-10-30T05:49:35.485Z,10.90
2022-10-30T05:52:06.651Z,9.90
2022-10-30T05:54:34.686Z,8.70
2022-10-30T05:57:10.729Z,10.70
2022-10-30T05:59:40.604Z,9.77
2022-10-30T06:02:10.577Z,9.25
2022-10-30T06:04:38.584Z,9.25
2022-10-30T06:07:11.720Z,10.25
2022-10-30T06:09:39.798Z,8.07
2022-10-30T06:12:27.214Z,9.57
2022-10-30T06:15:04.651Z,9.30
2022-10-30T06:17:34.116Z,10.60
2022-10-30T06:20:14.973Z,11.60
2022-10-30T06:22:55.762Z,9.80
2022-10-30T06:25:27.466Z,9.60
2022-10-30T06:28:18.122Z,11.15
2022-10-30T06:30:48.148Z,10.43
2022-10-30T06:33:17.464Z,9.50
2022-10-30T06:35:50.636Z,10.10
2022-10-30T06:38:20.008Z,11.05
2022-10-30T06:40:50.481Z,9.70
2022-10-30T06:43:28.355Z,10.40
2022-10-30T06:45:59.667Z,8.95
2022-10-30T06:48:33.526Z,10.13
2022-10-30T06:51:03.110Z,9.93
2022-10-30T06:53:34.298Z,9.85
2022-10-30T06:56:22.510Z,9.93
2022-10-30T06:59:06.348Z,10.18
2022-10-30T07:01:46.385Z,10.10
2022-10-30T07:04:20.366Z,11.00
2022-10-30T07:06:48.390Z,9.88
2022-10-30T07:09:18.622Z,11.93
2022-10-30T07:11:47.750Z,10.70
2022-10-30T07:14:38.664Z,11.70
2022-10-30T07:17:14.643Z,12.00
2022-10-30T07:19:47.576Z,10.43
2022-10-30T07:22:16.228Z,12.57
2022-10-30T07:24:51.301Z,10.45
2022-10-30T07:27:31.231Z,12.27
2022-10-30T07:30:12.809Z,12.80
2022-10-30T07:33:10.135Z,11.88
2022-10-30T07:36:01.897Z,12.32
2022-10-30T07:38:48.962Z,11.38
2022-10-30T07:41:30.168Z,9.60
2022-10-30T07:44:16.749Z,9.70
2022-10-30T07:46:56.616Z,9.70
2022-10-30T07:49:46.232Z,11.90
2022-10-30T07:52:17.265Z,12.73
2022-10-30T07:54:46.742Z,10.35
2022-10-30T07:57:35.614Z,11.07
2022-10-30T08:00:22.533Z,10.55
2022-10-30T08:03:00.534Z,9.32
2022-10-30T08:05:37.043Z,10.73
2022-10-30T08:08:10.362Z,10.70
2022-10-30T08:10:38.803Z,10.40
2022-10-30T08:13:06.923Z,10.32
2022-10-30T08:15:34.910Z,10.80
2022-10-30T08:18:03.697Z,8.73
2022-10-30T08:20:31.747Z,10.80
2022-10-30T08:23:00.972Z,8.25
2022-10-30T08:25:32.056Z,8.45
2022-10-30T08:28:01.917Z,9.63
2022-10-30T08:30:35.730Z,9.98
2022-10-30T08:33:08.697Z,8.75
2022-10-30T08:35:57.475Z,11.07
2022-10-30T08:38:28.014Z,10.38
2022-10-30T08:41:15.038Z,8.68
2022-10-30T08:43:47.014Z,10.18
2022-10-30T08:46:15.105Z,8.88
2022-10-30T08:48:43.145Z,10.02
2022-10-30T08:51:11.303Z,8.30
2022-10-30T08:53:44.924Z,8.75
2022-10-30T08:56:17.148Z,7.80
2022-10-30T08:58:52.940Z,9.27
2022-10-30T09:01:21.122Z,7.55
2022-10-30T09:04:07.734Z,8.60
2022-10-30T09:06:58.572Z,7.57
2022-10-30T09:09:50.531Z,7.55
2022-10-30T09:12:19.871Z,7.97
2022-10-30T09:14:48.546Z,8.05
2022-10-30T09:17:16.506Z,7.63
2022-10-30T09:22:26.417Z,6.55
2022-10-30T09:24:54.620Z,8.00
2022-10-30T09:27:59.384Z,5.00
2022-10-30T09:30:31.484Z,7.55
2022-10-30T09:33:04.252Z,7.72
2022-10-30T09:35:52.709Z,7.85
2022-10-30T09:38:20.738Z,7.72
2022-10-30T09:41:10.423Z,7.35
2022-10-30T09:43:50.666Z,7.20
2022-10-30T09:46:40.245Z,5.53
2022-10-30T09:49:25.135Z,6.10
2022-10-30T09:52:14.396Z,6.32
2022-10-30T09:54:56.072Z,5.63
2022-10-30T09:57:34.440Z,5.88
2022-10-30T10:00:11.394Z,6.43
2022-10-30T10:02:57.695Z,5.82
2022-10-30T10:05:35.656Z,5.50
2022-10-30T10:08:43.324Z,5.25
2022-10-30T10:11:35.061Z,5.90
2022-10-30T10:14:08.598Z,6.47
2022-10-30T10:16:42.031Z,5.30
2022-10-30T10:19:17.250Z,5.30
2022-10-30T10:21:48.171Z,5.35
2022-10-30T10:24:20.161Z,4.90
2022-10-30T10:26:50.634Z,5.43
2022-10-30T10:29:34.043Z,4.75
2022-10-30T10:32:15.154Z,5.78
2022-10-30T10:34:56.357Z,5.18
2022-10-30T10:37:32.601Z,4.95
2022-10-30T10:40:17.641Z,4.50
2022-10-30T10:42:57.846Z,3.83
2022-10-30T10:45:32.932Z,4.53
2022-10-30T10:48:26.626Z,5.53
2022-10-30T10:51:02.494Z,4.43
2022-10-30T10:53:37.315Z,5.28
2022-10-30T10:56:06.103Z,4.78
2022-10-30T10:58:40.581Z,3.67
2022-10-30T11:01:15.111Z,4.78
2022-10-30T11:03:53.877Z,5.68
2022-10-30T11:06:23.996Z,4.63
2022-10-30T11:08:54.244Z,4.57
2022-10-30T11:11:22.347Z,4.43
2022-10-30T11:13:51.047Z,4.88
2022-10-30T11:16:26.898Z,4.05
2022-10-30T11:18:59.025Z,4.53
2022-10-30T11:21:30.206Z,4.88
2022-10-30T11:23:58.214Z,4.57
2022-10-30T11:26:32.518Z,4.07
2022-10-30T11:29:05.574Z,4.35
2022-10-30T11:31:37.749Z,4.03
2022-10-30T11:34:37.606Z,4.13
2022-10-30T11:37:06.624Z,4.40
2022-10-30T11:39:36.332Z,4.10
2022-10-30T11:42:14.439Z,4.13
2022-10-30T11:44:44.538Z,4.30
2022-10-30T11:47:15.563Z,3.65
2022-10-30T11:49:49.838Z,4.03
2022-10-30T11:52:20.726Z,3.92
2022-10-30T11:54:54.049Z,4.55
2022-10-30T11:57:33.945Z,3.75
2022-10-30T12:00:05.537Z,4.07
2022-10-30T12:02:43.614Z,4.35
2022-10-30T12:05:32.463Z,3.47
2022-10-30T12:08:19.207Z,4.03
2022-10-30T12:10:57.066Z,3.90
2022-10-30T12:13:25.999Z,4.15
2022-10-30T12:16:07.525Z,4.07
2022-10-30T12:18:36.002Z,3.75
2022-10-30T12:21:05.637Z,4.25
2022-10-30T12:23:34.380Z,4.18
2022-10-30T12:26:09.280Z,3.97
2022-10-30T12:28:37.838Z,4.47
2022-10-30T12:31:11.731Z,4.15
2022-10-30T12:33:44.375Z,4.20
2022-10-30T12:36:17.855Z,3.75
2022-10-30T12:38:50.281Z,4.43
2022-10-30T12:41:24.607Z,4.28
2022-10-30T12:43:59.275Z,3.97
2022-10-30T12:46:34.715Z,3.92
2022-10-30T12:49:12.597Z,4.22
2022-10-30T12:51:50.788Z,3.65
2022-10-30T12:54:26.865Z,4.15
2022-10-30T12:57:14.551Z,3.42
2022-10-30T12:59:52.753Z,3.42
2022-10-30T13:02:30.205Z,3.85
2022-10-30T13:05:04.705Z,3.63
2022-10-30T13:07:41.782Z,3.53
2022-10-30T13:10:26.712Z,3.83
2022-10-30T13:13:01.986Z,4.00
2022-10-30T13:15:34.142Z,4.32
2022-10-30T13:18:14.607Z,4.20
2022-10-30T13:20:45.441Z,3.72
2022-10-30T13:23:21.634Z,4.40
2022-10-30T13:26:03.107Z,4.07
2022-10-30T13:28:40.146Z,3.92
2022-10-30T13:31:17.873Z,3.92
2022-10-30T13:33:53.864Z,3.72
2022-10-30T13:36:28.164Z,3.40
2022-10-30T13:39:01.706Z,3.63
2022-10-30T13:41:40.926Z,4.43
2022-10-30T13:44:22.759Z,3.40
2022-10-30T13:46:59.840Z,3.42
2022-10-30T13:49:49.298Z,3.85
2022-10-30T13:52:18.791Z,3.53
2022-10-30T13:54:57.990Z,3.75
2022-10-30T13:57:33.843Z,3.92
2022-10-30T14:00:07.692Z,3.75
2022-10-30T14:02:52.398Z,3.90
2022-10-30T14:05:31.902Z,3.42
2022-10-30T14:08:07.778Z,2.97
2022-10-30T14:10:46.460Z,3.58
2022-10-30T14:13:26.786Z,3.45
2022-10-30T14:15:57.617Z,3.90
2022-10-30T14:18:43.639Z,3.30
2022-10-30T14:21:38.622Z,3.03
2022-10-30T14:24:13.711Z,2.72
2022-10-30T14:26:50.091Z,2.88
2022-10-30T14:29:39.562Z,2.80
2022-10-30T14:32:40.952Z,2.40
2022-10-30T14:35:29.064Z,2.80
2022-10-30T14:37:58.164Z,2.45
2022-10-30T14:40:39.026Z,2.58
2022-10-30T14:43:16.001Z,2.80
2022-10-30T14:45:49.452Z,2.55
2022-10-30T14:48:23.434Z,3.10
2022-10-30T14:51:05.565Z,3.10
2022-10-30T14:53:51.757Z,4.88
2022-10-30T14:56:31.412Z,3.70
2022-10-30T14:59:23.049Z,3.33
2022-10-30T15:02:00.771Z,2.63
2022-10-30T15:04:41.534Z,3.05
2022-10-30T15:07:20.624Z,2.55
2022-10-30T15:10:01.253Z,2.80
2022-10-30T15:12:52.280Z,2.83
2022-10-30T15:15:22.263Z,3.10
2022-10-30T15:17:53.620Z,2.95
2022-10-30T15:20:24.849Z,3.58
2022-10-30T15:22:55.390Z,4.30
2022-10-30T15:25:25.410Z,3.55
2022-10-30T15:27:55.624Z,3.70
2022-10-30T15:30:26.890Z,4.63
2022-10-30T15:32:55.423Z,4.20
2022-10-30T15:35:25.733Z,4.30
2022-10-30T15:38:01.115Z,3.97
2022-10-30T15:40:30.374Z,4.13
2022-10-30T15:43:00.718Z,4.88
2022-10-30T15:45:35.359Z,4.25
2022-10-30T15:48:09.342Z,4.07
2022-10-30T15:50:41.476Z,3.40
2022-10-30T15:53:18.375Z,4.65
2022-10-30T15:55:46.665Z,5.93
2022-10-30T15:58:18.341Z,6.22
2022-10-30T16:00:57.700Z,5.97
2022-10-30T16:03:26.368Z,6.68
2022-10-30T16:06:05.690Z,6.90
2022-10-30T16:08:43.158Z,5.65
2022-10-30T16:11:11.347Z,6.35
2022-10-30T16:13:39.629Z,5.40
2022-10-30T16:18:44.803Z,4.88
2022-10-30T16:21:18.543Z,4.70
2022-10-30T16:23:54.784Z,5.60
2022-10-30T16:26:27.440Z,6.93
2022-10-30T16:28:55.402Z,5.57
2022-10-30T16:31:25.249Z,6.25
2022-10-30T16:33:54.134Z,5.30
2022-10-30T16:36:22.142Z,4.68
2022-10-30T16:38:52.216Z,5.55
2022-10-30T16:41:25.698Z,5.70
2022-10-30T16:44:27.409Z,4.75
2022-10-30T16:46:59.261Z,5.60
2022-10-30T16:49:30.573Z,4.75
2022-10-30T16:52:01.106Z,5.50
2022-10-30T16:54:32.172Z,4.78
2022-10-30T16:57:02.233Z,5.07
2022-10-30T16:59:34.041Z,5.22
2022-10-30T17:02:07.129Z,6.68
2022-10-30T17:04:36.190Z,4.60
2022-10-30T17:07:18.583Z,4.60
2022-10-30T17:09:48.200Z,3.80
2022-10-30T17:12:21.582Z,3.63
2022-10-30T17:14:55.856Z,4.32
2022-10-30T17:17:31.549Z,3.88
2022-10-30T17:20:06.110Z,3.67
2022-10-30T17:22:34.614Z,4.15
2022-10-30T17:25:02.690Z,4.20
2022-10-30T17:27:45.152Z,3.63
2022-10-30T17:30:39.015Z,3.17
2022-10-30T17:33:27.045Z,3.45
2022-10-30T17:38:29.048Z,3.38
2022-10-30T17:40:57.186Z,3.40
2022-10-30T17:43:28.685Z,3.75
2022-10-30T17:45:56.948Z,3.22
2022-10-30T17:48:28.209Z,3.92
2022-10-30T17:50:56.602Z,3.20
2022-10-30T17:53:26.075Z,4.00
2022-10-30T17:56:01.196Z,4.18
2022-10-30T17:58:30.752Z,3.78
2022-10-30T18:00:59.313Z,4.13
2022-10-30T18:03:29.080Z,3.22
2022-10-30T18:05:58.637Z,3.55
2022-10-30T18:08:26.628Z,4.00
2022-10-30T18:10:54.679Z,3.55
2022-10-30T18:13:22.711Z,3.85
2022-10-30T18:15:55.374Z,4.15
2022-10-30T18:18:23.341Z,3.65
2022-10-30T18:20:52.649Z,3.60
2022-10-30T18:23:51.429Z,3.42
2022-10-30T18:26:15.875Z,3.72
2022-10-30T18:28:43.990Z,4.20
2022-10-30T18:31:13.853Z,3.55
2022-10-30T18:33:41.889Z,3.97
2022-10-30T18:36:15.076Z,3.47
2022-10-30T18:38:43.177Z,4.30
2022-10-30T18:41:16.189Z,4.03
2022-10-30T18:43:46.917Z,4.05
2022-10-30T18:46:16.921Z,4.45
2022-10-30T18:48:45.595Z,3.47
2022-10-30T18:51:19.205Z,3.88
2022-10-30T18:53:52.395Z,3.88
2022-10-30T18:56:22.102Z,6.30
2022-10-30T18:58:53.567Z,5.18
2022-10-30T19:01:26.595Z,5.15
2022-10-30T19:03:54.973Z,4.30
2022-10-30T19:06:25.701Z,3.90
2022-10-30T19:08:55.813Z,4.90
2022-10-30T19:11:25.199Z,4.45
2022-10-30T19:13:54.900Z,4.32
2022-10-30T19:16:24.471Z,5.43
2022-10-30T19:18:52.768Z,6.72
2022-10-30T19:21:22.782Z,6.22
2022-10-30T19:23:54.691Z,7.03
2022-10-30T19:26:22.705Z,5.80
2022-10-30T19:28:50.675Z,5.88
2022-10-30T19:31:22.963Z,5.38
2022-10-30T19:33:54.569Z,5.50
2022-10-30T19:36:29.998Z,5.90
2022-10-30T19:39:04.218Z,6.05
2022-10-30T19:41:35.358Z,5.03
2022-10-30T19:44:03.332Z,5.13
2022-10-30T19:46:31.312Z,6.10
2022-10-30T19:49:00.091Z,7.10
2022-10-30T19:51:31.261Z,14.85
2022-10-30T19:54:00.592Z,16.80
2022-10-30T19:56:29.038Z,15.80
2022-10-30T19:58:57.334Z,19.38
2022-10-30T20:01:25.496Z,18.38
2022-10-30T20:03:53.582Z,15.27
2022-10-30T20:06:21.990Z,14.90
2022-10-30T20:08:50.235Z,13.07
2022-10-30T20:11:19.694Z,9.05
2022-10-30T20:13:52.189Z,12.45
2022-10-30T20:16:22.855Z,9.82
2022-10-30T20:18:51.255Z,8.88
2022-10-30T20:21:21.067Z,6.78
2022-10-30T20:23:49.146Z,5.63
2022-10-30T20:26:25.954Z,5.63
2022-10-30T20:28:54.534Z,5.35
2022-10-30T20:31:22.762Z,5.40
2022-10-30T20:33:50.751Z,6.75
2022-10-30T20:36:18.746Z,6.40
2022-10-30T20:38:46.779Z,6.53
2022-10-30T20:41:22.914Z,7.70
2022-10-30T20:43:52.534Z,6.95
2022-10-30T20:46:21.109Z,6.65
2022-10-30T20:48:52.772Z,6.85
2022-10-30T20:51:21.355Z,6.65
2022-10-30T20:53:50.793Z,7.90
2022-10-30T20:56:18.837Z,7.97
2022-10-30T20:58:46.788Z,6.72
2022-10-30T21:01:16.232Z,7.88
2022-10-30T21:03:45.576Z,7.22
2022-10-30T21:06:15.479Z,5.85
2022-10-30T21:08:43.511Z,4.95
2022-10-30T21:11:11.507Z,9.85
2022-10-30T21:13:40.789Z,6.82
2022-10-30T21:16:10.282Z,9.68
2022-10-30T21:18:39.594Z,11.30
2022-10-30T21:21:11.464Z,9.38
2022-10-30T21:23:39.580Z,9.75
2022-10-30T21:26:12.062Z,10.93
2022-10-30T21:28:40.308Z,9.35
2022-10-30T21:31:11.464Z,10.18
2022-10-30T21:33:43.056Z,8.25
2022-10-30T21:36:14.533Z,7.05
2022-10-30T21:38:44.279Z,7.32
2022-10-30T21:41:14.086Z,5.78
2022-10-30T21:43:42.404Z,5.85
2022-10-30T21:46:12.810Z,6.05
2022-10-30T21:48:41.140Z,6.22
2022-10-30T21:51:13.393Z,6.53
2022-10-30T21:53:42.187Z,6.88
2022-10-30T21:56:12.234Z,8.02
2022-10-30T21:58:41.135Z,9.10
2022-10-30T22:01:17.075Z,9.48
2022-10-30T22:03:45.161Z,9.05
2022-10-30T22:06:16.833Z,9.20
2022-10-30T22:08:46.993Z,9.23
2022-10-30T22:11:15.780Z,8.55
2022-10-30T22:13:44.182Z,7.13
2022-10-30T22:16:14.073Z,8.35
2022-10-30T22:18:42.259Z,7.65
2022-10-30T22:21:12.568Z,7.63
2022-10-30T22:23:42.727Z,8.07
2022-10-30T22:26:13.720Z,8.18
2022-10-30T22:28:42.210Z,9.00
2022-10-30T22:31:12.787Z,9.32
2022-10-30T22:33:41.248Z,8.68
2022-10-30T22:36:14.307Z,8.20
2022-10-30T22:38:44.023Z,8.23
2022-10-30T22:41:15.282Z,7.85
2022-10-30T22:43:44.666Z,7.57
2022-10-30T22:46:13.470Z,6.35
2022-10-30T22:48:41.520Z,7.65
2022-10-30T22:51:15.163Z,6.95
2022-10-30T22:53:46.700Z,7.25
2022-10-30T22:56:17.578Z,7.07
2022-10-30T22:58:46.470Z,7.45
2022-10-30T23:01:16.634Z,7.82
2022-10-30T23:03:45.284Z,7.30
2022-10-30T23:06:14.596Z,7.70
2022-10-30T23:08:43.324Z,8.38
2022-10-30T23:11:12.871Z,8.05
2022-10-30T23:13:41.387Z,8.50
2022-10-30T23:16:13.540Z,7.90
2022-10-30T23:18:42.442Z,9.52
2022-10-30T23:21:13.685Z,8.57
2022-10-30T23:23:42.563Z,9.75
2022-10-30T23:26:14.026Z,9.35
2022-10-30T23:28:44.956Z,8.90
2022-10-30T23:31:19.296Z,9.35
2022-10-30T23:33:48.718Z,8.65
2022-10-30T23:36:17.244Z,10.38
2022-10-30T23:38:45.587Z,8.90
2022-10-30T23:41:14.903Z,9.48
2022-10-30T23:43:42.841Z,9.35
2022-10-30T23:46:10.888Z,8.52
2022-10-30T23:48:38.859Z,8.73
2022-10-30T23:51:07.753Z,8.65
2022-10-30T23:53:35.851Z,8.70
2022-10-30T23:56:04.518Z,7.53
2022-10-30T23:58:33.917Z,8.02
